sensor_id;sensor_type;location;lat;lon;timestamp;pressure;altitude;pressure_sealevel;temperature;humidity
49611;BME280;35515;48.766;9.176;2022-08-01T00:02:12;98372.09;;;21.95;51.23
49611;BME280;35515;48.766;9.176;2022-08-01T00:04:39;98368.53;;;21.89;51.33
49611;BME280;35515;48.766;9.176;2022-08-01T00:07:05;98371.25;;;21.99;51.03
49611;BME280;35515;48.766;9.176;2022-08-01T00:09:32;98371.25;;;21.99;51.45
49611;BME280;35515;48.766;9.176;2022-08-01T00:12:00;98375.72;;;21.90;51.23
49611;BME280;35515;48.766;9.176;2022-08-01T00:14:27;98365.78;;;21.94;51.16
49611;BME280;35515;48.766;9.176;2022-08-01T00:16:53;98370.44;;;21.94;51.21
49611;BME280;35515;48.766;9.176;2022-08-01T00:19:20;98374.56;;;21.96;51.16
49611;BME280;35515;48.766;9.176;2022-08-01T00:21:47;98377.03;;;22.03;50.64
49611;BME280;35515;48.766;9.176;2022-08-01T00:24:13;98379.78;;;22.03;50.83
49611;BME280;35515;48.766;9.176;2022-08-01T00:26:40;98378.19;;;21.92;51.24
49611;BME280;35515;48.766;9.176;2022-08-01T00:29:07;98387.06;;;21.83;51.61
49611;BME280;35515;48.766;9.176;2022-08-01T00:31:34;98382.69;;;21.67;51.79
49611;BME280;35515;48.766;9.176;2022-08-01T00:34:01;98383.72;;;21.86;51.25
49611;BME280;35515;48.766;9.176;2022-08-01T00:36:27;98383.75;;;21.81;51.45
49611;BME280;35515;48.766;9.176;2022-08-01T00:38:54;98391.47;;;21.79;51.42
49611;BME280;35515;48.766;9.176;2022-08-01T00:41:20;98389.81;;;21.78;51.68
49611;BME280;35515;48.766;9.176;2022-08-01T00:43:47;98391.72;;;21.88;51.31
49611;BME280;35515;48.766;9.176;2022-08-01T00:46:15;98389.28;;;21.76;51.98
49611;BME280;35515;48.766;9.176;2022-08-01T00:48:42;98387.09;;;21.73;51.67
49611;BME280;35515;48.766;9.176;2022-08-01T00:51:08;98388.97;;;21.83;51.22
49611;BME280;35515;48.766;9.176;2022-08-01T00:53:35;98389.22;;;21.92;50.72
49611;BME280;35515;48.766;9.176;2022-08-01T00:56:02;98388.66;;;21.90;50.61
49611;BME280;35515;48.766;9.176;2022-08-01T00:58:28;98385.88;;;21.95;50.72
49611;BME280;35515;48.766;9.176;2022-08-01T01:00:57;98395.03;;;21.90;50.82
49611;BME280;35515;48.766;9.176;2022-08-01T01:03:25;98391.66;;;22.03;50.04
49611;BME280;35515;48.766;9.176;2022-08-01T01:05:58;98396.91;;;22.00;50.45
49611;BME280;35515;48.766;9.176;2022-08-01T01:08:31;98396.31;;;22.03;50.42
49611;BME280;35515;48.766;9.176;2022-08-01T01:11:05;98395.03;;;21.90;50.95
49611;BME280;35515;48.766;9.176;2022-08-01T01:13:38;98393.09;;;21.85;51.06
49611;BME280;35515;48.766;9.176;2022-08-01T01:16:12;98396.72;;;21.81;51.15
49611;BME280;35515;48.766;9.176;2022-08-01T01:18:44;98396.94;;;21.90;50.74
49611;BME280;35515;48.766;9.176;2022-08-01T01:21:39;98405.22;;;21.90;51.50
49611;BME280;35515;48.766;9.176;2022-08-01T01:24:21;98410.19;;;21.87;51.09
49611;BME280;35515;48.766;9.176;2022-08-01T01:26:59;98405.50;;;21.88;51.14
49611;BME280;35515;48.766;9.176;2022-08-01T01:29:32;98405.16;;;22.05;50.21
49611;BME280;35515;48.766;9.176;2022-08-01T01:32:04;98403.00;;;21.97;50.61
49611;BME280;35515;48.766;9.176;2022-08-01T01:34:33;98403.97;;;22.21;49.74
49611;BME280;35515;48.766;9.176;2022-08-01T01:37:01;98404.38;;;21.94;50.78
49611;BME280;35515;48.766;9.176;2022-08-01T01:39:29;98407.72;;;21.86;50.99
49611;BME280;35515;48.766;9.176;2022-08-01T01:41:57;98414.56;;;21.94;50.80
49611;BME280;35515;48.766;9.176;2022-08-01T01:44:26;98405.47;;;21.98;50.64
49611;BME280;35515;48.766;9.176;2022-08-01T01:46:56;98411.78;;;22.04;50.70
49611;BME280;35515;48.766;9.176;2022-08-01T01:49:24;98404.38;;;21.99;50.87
49611;BME280;35515;48.766;9.176;2022-08-01T01:51:54;98415.59;;;22.13;50.44
49611;BME280;35515;48.766;9.176;2022-08-01T01:54:22;98421.16;;;22.03;50.69
49611;BME280;35515;48.766;9.176;2022-08-01T01:56:49;98416.78;;;21.92;51.02
49611;BME280;35515;48.766;9.176;2022-08-01T01:59:18;98409.63;;;21.91;51.73
49611;BME280;35515;48.766;9.176;2022-08-01T02:01:47;98411.28;;;21.92;51.69
49611;BME280;35515;48.766;9.176;2022-08-01T02:04:15;98405.72;;;22.02;51.05
49611;BME280;35515;48.766;9.176;2022-08-01T02:06:43;98412.09;;;21.92;51.53
49611;BME280;35515;48.766;9.176;2022-08-01T02:09:11;98411.28;;;21.92;51.68
49611;BME280;35515;48.766;9.176;2022-08-01T02:11:42;98409.63;;;21.91;51.44
49611;BME280;35515;48.766;9.176;2022-08-01T02:14:10;98408.53;;;21.86;51.67
49611;BME280;35515;48.766;9.176;2022-08-01T02:16:40;98411.31;;;21.81;51.87
49611;BME280;35515;48.766;9.176;2022-08-01T02:19:07;98411.84;;;21.88;51.70
49611;BME280;35515;48.766;9.176;2022-08-01T02:21:39;98414.63;;;21.83;51.99
49611;BME280;35515;48.766;9.176;2022-08-01T02:24:10;98410.75;;;21.84;52.20
49611;BME280;35515;48.766;9.176;2022-08-01T02:26:38;98417.28;;;22.04;51.26
49611;BME280;35515;48.766;9.176;2022-08-01T02:29:10;98414.03;;;21.92;51.67
49611;BME280;35515;48.766;9.176;2022-08-01T02:31:41;98412.97;;;21.87;51.68
49611;BME280;35515;48.766;9.176;2022-08-01T02:34:15;98414.06;;;21.86;51.82
49611;BME280;35515;48.766;9.176;2022-08-01T02:36:45;98416.81;;;21.81;52.10
49611;BME280;35515;48.766;9.176;2022-08-01T02:39:16;98421.47;;;21.91;51.86
49611;BME280;35515;48.766;9.176;2022-08-01T02:41:47;98414.34;;;21.80;52.42
49611;BME280;35515;48.766;9.176;2022-08-01T02:44:17;98422.38;;;21.71;52.72
49611;BME280;35515;48.766;9.176;2022-08-01T02:46:50;98433.44;;;21.61;53.17
49611;BME280;35515;48.766;9.176;2022-08-01T02:49:19;98427.06;;;21.70;52.99
49611;BME280;35515;48.766;9.176;2022-08-01T02:51:48;98426.25;;;21.65;53.20
49611;BME280;35515;48.766;9.176;2022-08-01T02:54:17;98429.56;;;21.62;53.43
49611;BME280;35515;48.766;9.176;2022-08-01T02:56:46;98426.53;;;21.63;53.28
49611;BME280;35515;48.766;9.176;2022-08-01T02:59:16;98426.81;;;21.62;53.39
49611;BME280;35515;48.766;9.176;2022-08-01T03:01:44;98430.09;;;21.48;54.00
49611;BME280;35515;48.766;9.176;2022-08-01T03:04:12;98432.88;;;21.43;54.28
49611;BME280;35515;48.766;9.176;2022-08-01T03:06:39;98426.81;;;21.36;54.41
49611;BME280;35515;48.766;9.176;2022-08-01T03:09:08;98432.88;;;21.43;54.45
49611;BME280;35515;48.766;9.176;2022-08-01T03:11:37;98426.31;;;21.29;54.79
49611;BME280;35515;48.766;9.176;2022-08-01T03:14:07;98427.94;;;21.30;54.85
49611;BME280;35515;48.766;9.176;2022-08-01T03:16:38;98424.94;;;21.26;55.14
49611;BME280;35515;48.766;9.176;2022-08-01T03:19:07;98422.69;;;21.33;54.50
49611;BME280;35515;48.766;9.176;2022-08-01T03:21:35;98428.22;;;21.28;55.05
49611;BME280;35515;48.766;9.176;2022-08-01T03:24:05;98434.00;;;21.47;54.70
49611;BME280;35515;48.766;9.176;2022-08-01T03:26:36;98433.72;;;21.54;54.38
49611;BME280;35515;48.766;9.176;2022-08-01T03:29:05;98436.75;;;21.42;54.90
49611;BME280;35515;48.766;9.176;2022-08-01T03:31:34;98434.00;;;21.37;55.29
49611;BME280;35515;48.766;9.176;2022-08-01T03:34:01;98430.69;;;21.40;55.13
49611;BME280;35515;48.766;9.176;2022-08-01T03:36:28;98428.78;;;21.30;55.73
49611;BME280;35515;48.766;9.176;2022-08-01T03:38:58;98429.88;;;21.19;56.08
49611;BME280;35515;48.766;9.176;2022-08-01T03:41:28;98429.59;;;21.41;55.56
49611;BME280;35515;48.766;9.176;2022-08-01T03:44:01;98435.38;;;21.34;55.77
49611;BME280;35515;48.766;9.176;2022-08-01T03:46:33;98435.94;;;21.26;56.20
49611;BME280;35515;48.766;9.176;2022-08-01T03:49:07;98437.88;;;21.15;56.44
49611;BME280;35515;48.766;9.176;2022-08-01T03:51:34;98443.94;;;21.23;56.14
49611;BME280;35515;48.766;9.176;2022-08-01T03:54:04;98437.31;;;21.08;56.85
49611;BME280;35515;48.766;9.176;2022-08-01T03:56:32;98435.94;;;21.11;56.88
49611;BME280;35515;48.766;9.176;2022-08-01T03:59:01;98437.59;;;21.22;56.38
49611;BME280;35515;48.766;9.176;2022-08-01T04:01:31;98433.19;;;21.16;56.77
49611;BME280;35515;48.766;9.176;2022-08-01T04:03:59;98436.22;;;21.19;56.49
49611;BME280;35515;48.766;9.176;2022-08-01T04:06:26;98436.75;;;21.16;57.04
49611;BME280;35515;48.766;9.176;2022-08-01T04:08:54;98439.50;;;21.27;56.40
49611;BME280;35515;48.766;9.176;2022-08-01T04:11:24;98439.50;;;21.21;57.11
49611;BME280;35515;48.766;9.176;2022-08-01T04:13:52;98437.84;;;21.26;57.12
49611;BME280;35515;48.766;9.176;2022-08-01T04:16:21;98440.59;;;21.41;56.20
49611;BME280;35515;48.766;9.176;2022-08-01T04:18:48;98439.50;;;21.37;56.73
49611;BME280;35515;48.766;9.176;2022-08-01T04:21:18;98446.41;;;21.40;56.69
49611;BME280;35515;48.766;9.176;2022-08-01T04:23:47;98441.47;;;21.31;57.02
49611;BME280;35515;48.766;9.176;2022-08-01T04:26:17;98446.69;;;21.38;57.07
49611;BME280;35515;48.766;9.176;2022-08-01T04:28:45;98444.47;;;21.30;57.32
49611;BME280;35515;48.766;9.176;2022-08-01T04:31:13;98448.31;;;21.49;56.69
49611;BME280;35515;48.766;9.176;2022-08-01T04:33:46;98451.34;;;21.48;57.06
49611;BME280;35515;48.766;9.176;2022-08-01T04:36:15;98455.47;;;21.40;57.31
49611;BME280;35515;48.766;9.176;2022-08-01T04:38:45;98453.81;;;21.39;57.34
49611;BME280;35515;48.766;9.176;2022-08-01T04:41:15;98454.38;;;21.31;57.68
49611;BME280;35515;48.766;9.176;2022-08-01T04:43:43;98459.38;;;21.34;57.56
49611;BME280;35515;48.766;9.176;2022-08-01T04:46:10;98459.63;;;21.37;57.67
49611;BME280;35515;48.766;9.176;2022-08-01T04:48:38;98469.53;;;21.38;57.73
49611;BME280;35515;48.766;9.176;2022-08-01T04:51:13;98464.31;;;21.37;57.82
49611;BME280;35515;48.766;9.176;2022-08-01T04:53:41;98452.75;;;21.25;58.53
49611;BME280;35515;48.766;9.176;2022-08-01T04:56:08;98452.47;;;21.21;58.80
49611;BME280;35515;48.766;9.176;2022-08-01T04:58:38;98451.09;;;21.34;58.42
49611;BME280;35515;48.766;9.176;2022-08-01T05:01:04;98445.03;;;21.32;58.72
49611;BME280;35515;48.766;9.176;2022-08-01T05:03:31;98447.78;;;21.32;58.86
49611;BME280;35515;48.766;9.176;2022-08-01T05:05:58;98435.94;;;21.31;59.10
49611;BME280;35515;48.766;9.176;2022-08-01T05:08:26;98436.75;;;21.32;59.27
49611;BME280;35515;48.766;9.176;2022-08-01T05:10:52;98433.44;;;21.35;59.50
49611;BME280;35515;48.766;9.176;2022-08-01T05:13:19;98434.56;;;21.24;60.15
49611;BME280;35515;48.766;9.176;2022-08-01T05:15:46;98433.19;;;21.26;60.11
49611;BME280;35515;48.766;9.176;2022-08-01T05:18:12;98443.94;;;21.23;60.44
49611;BME280;35515;48.766;9.176;2022-08-01T05:20:40;98439.50;;;21.32;60.07
49611;BME280;35515;48.766;9.176;2022-08-01T05:23:06;98436.47;;;21.23;61.05
49611;BME280;35515;48.766;9.176;2022-08-01T05:25:34;98437.56;;;21.32;60.23
49611;BME280;35515;48.766;9.176;2022-08-01T05:28:01;98442.25;;;21.42;59.88
49611;BME280;35515;48.766;9.176;2022-08-01T05:30:28;98445.00;;;21.47;60.00
49611;BME280;35515;48.766;9.176;2022-08-01T05:32:54;98444.72;;;21.49;60.10
49611;BME280;35515;48.766;9.176;2022-08-01T05:35:21;98433.44;;;21.35;60.70
49611;BME280;35515;48.766;9.176;2022-08-01T05:37:48;98437.03;;;21.41;60.34
49611;BME280;35515;48.766;9.176;2022-08-01T05:40:14;98449.16;;;21.50;60.20
49611;BME280;35515;48.766;9.176;2022-08-01T05:42:42;98444.47;;;21.45;60.67
49611;BME280;35515;48.766;9.176;2022-08-01T05:45:09;98450.50;;;21.52;60.48
49611;BME280;35515;48.766;9.176;2022-08-01T05:47:36;98449.41;;;21.59;60.62
49611;BME280;35515;48.766;9.176;2022-08-01T05:50:04;98450.53;;;21.58;61.34
49611;BME280;35515;48.766;9.176;2022-08-01T05:52:30;98451.88;;;21.81;60.64
49611;BME280;35515;48.766;9.176;2022-08-01T05:54:57;98457.09;;;21.72;60.92
49611;BME280;35515;48.766;9.176;2022-08-01T05:57:25;98462.63;;;21.77;60.70
49611;BME280;35515;48.766;9.176;2022-08-01T05:59:53;98452.38;;;21.88;60.42
49611;BME280;35515;48.766;9.176;2022-08-01T06:02:19;98453.75;;;21.85;60.54
49611;BME280;35515;48.766;9.176;2022-08-01T06:04:46;98456.81;;;21.79;60.95
49611;BME280;35515;48.766;9.176;2022-08-01T06:07:12;98458.19;;;21.76;61.05
49611;BME280;35515;48.766;9.176;2022-08-01T06:09:39;98457.59;;;21.90;60.84
49611;BME280;35515;48.766;9.176;2022-08-01T06:12:06;98460.94;;;21.92;60.92
49611;BME280;35515;48.766;9.176;2022-08-01T06:14:33;98463.91;;;22.00;60.76
49611;BME280;35515;48.766;9.176;2022-08-01T06:17:01;98461.44;;;21.99;60.70
49611;BME280;35515;48.766;9.176;2022-08-01T06:19:27;98456.97;;;22.13;60.54
49611;BME280;35515;48.766;9.176;2022-08-01T06:21:54;98464.63;;;22.32;60.25
49611;BME280;35515;48.766;9.176;2022-08-01T06:24:20;98469.63;;;22.25;60.67
49611;BME280;35515;48.766;9.176;2022-08-01T06:26:48;98463.00;;;22.20;61.02
49611;BME280;35515;48.766;9.176;2022-08-01T06:29:15;98457.47;;;22.20;60.91
49611;BME280;35515;48.766;9.176;2022-08-01T06:31:41;98462.47;;;22.24;61.06
49611;BME280;35515;48.766;9.176;2022-08-01T06:34:09;98457.22;;;22.27;60.84
49611;BME280;35515;48.766;9.176;2022-08-01T06:36:36;98453.03;;;22.35;60.82
49611;BME280;35515;48.766;9.176;2022-08-01T06:39:03;98453.59;;;22.32;60.78
49611;BME280;35515;48.766;9.176;2022-08-01T06:41:29;98455.53;;;22.31;61.23
49611;BME280;35515;48.766;9.176;2022-08-01T06:43:56;98459.63;;;22.39;60.75
49611;BME280;35515;48.766;9.176;2022-08-01T06:46:22;98458.56;;;22.35;60.76
49611;BME280;35515;48.766;9.176;2022-08-01T06:48:49;98462.97;;;22.31;60.79
49611;BME280;35515;48.766;9.176;2022-08-01T06:51:17;98457.44;;;22.31;61.06
49611;BME280;35515;48.766;9.176;2022-08-01T06:53:46;98458.84;;;22.28;60.78
49611;BME280;35515;48.766;9.176;2022-08-01T06:56:12;98460.22;;;22.36;60.65
49611;BME280;35515;48.766;9.176;2022-08-01T06:58:39;98464.84;;;22.46;60.53
49611;BME280;35515;48.766;9.176;2022-08-01T07:01:05;98462.34;;;22.49;60.01
49611;BME280;35515;48.766;9.176;2022-08-01T07:03:33;98464.06;;;22.40;60.24
49611;BME280;35515;48.766;9.176;2022-08-01T07:05:59;98456.56;;;22.46;60.14
49611;BME280;35515;48.766;9.176;2022-08-01T07:08:27;98462.63;;;22.48;59.94
49611;BME280;35515;48.766;9.176;2022-08-01T07:10:54;98459.84;;;22.53;59.89
49611;BME280;35515;48.766;9.176;2022-08-01T07:13:21;98457.38;;;22.57;59.72
49611;BME280;35515;48.766;9.176;2022-08-01T07:15:50;98460.34;;;22.60;59.61
49611;BME280;35515;48.766;9.176;2022-08-01T07:18:18;98461.69;;;22.68;59.48
49611;BME280;35515;48.766;9.176;2022-08-01T07:20:44;98461.13;;;22.71;59.22
49611;BME280;35515;48.766;9.176;2022-08-01T07:23:11;98465.44;;;22.87;58.72
49611;BME280;35515;48.766;9.176;2022-08-01T07:25:39;98457.78;;;22.79;58.71
49611;BME280;35515;48.766;9.176;2022-08-01T07:28:06;98459.72;;;22.74;58.69
49611;BME280;35515;48.766;9.176;2022-08-01T07:30:32;98462.97;;;22.86;58.54
49611;BME280;35515;48.766;9.176;2022-08-01T07:32:59;98450.59;;;22.78;58.99
49611;BME280;35515;48.766;9.176;2022-08-01T07:35:26;98453.56;;;22.87;58.55
49611;BME280;35515;48.766;9.176;2022-08-01T07:37:52;98457.72;;;22.84;58.35
49611;BME280;35515;48.766;9.176;2022-08-01T07:40:19;98456.56;;;22.91;57.51
49611;BME280;35515;48.766;9.176;2022-08-01T07:42:47;98453.03;;;22.85;57.67
49611;BME280;35515;48.766;9.176;2022-08-01T07:45:14;98458.19;;;22.97;57.70
49611;BME280;35515;48.766;9.176;2022-08-01T07:47:41;98452.53;;;23.12;57.15
49611;BME280;35515;48.766;9.176;2022-08-01T07:50:08;98447.59;;;23.14;57.13
49611;BME280;35515;48.766;9.176;2022-08-01T07:52:34;98444.34;;;23.02;57.46
49611;BME280;35515;48.766;9.176;2022-08-01T07:55:01;98445.97;;;23.03;57.32
49611;BME280;35515;48.766;9.176;2022-08-01T07:57:28;98443.72;;;23.15;57.23
49611;BME280;35515;48.766;9.176;2022-08-01T07:59:56;98449.72;;;23.23;56.65
49611;BME280;35515;48.766;9.176;2022-08-01T08:02:22;98448.66;;;23.18;57.04
49611;BME280;35515;48.766;9.176;2022-08-01T08:04:49;98445.84;;;23.24;56.62
49611;BME280;35515;48.766;9.176;2022-08-01T08:07:15;98453.81;;;23.30;56.78
49611;BME280;35515;48.766;9.176;2022-08-01T08:09:42;98443.81;;;23.34;56.49
49611;BME280;35515;48.766;9.176;2022-08-01T08:12:09;98449.03;;;23.36;56.10
49611;BME280;35515;48.766;9.176;2022-08-01T08:14:36;98435.28;;;23.31;56.18
49611;BME280;35515;48.766;9.176;2022-08-01T08:17:04;98434.94;;;23.37;55.83
49611;BME280;35515;48.766;9.176;2022-08-01T08:19:31;98436.16;;;23.56;55.46
49611;BME280;35515;48.766;9.176;2022-08-01T08:21:59;98430.97;;;23.73;55.16
49611;BME280;35515;48.766;9.176;2022-08-01T08:24:25;98440.88;;;23.79;54.80
49611;BME280;35515;48.766;9.176;2022-08-01T08:26:54;98435.69;;;23.73;54.94
49611;BME280;35515;48.766;9.176;2022-08-01T08:29:21;98437.63;;;23.72;55.13
49611;BME280;35515;48.766;9.176;2022-08-01T08:31:48;98435.50;;;23.88;54.61
49611;BME280;35515;48.766;9.176;2022-08-01T08:34:17;98425.16;;;23.75;55.19
49611;BME280;35515;48.766;9.176;2022-08-01T08:36:44;98436.41;;;23.83;54.65
49611;BME280;35515;48.766;9.176;2022-08-01T08:39:10;98436.44;;;24.08;54.03
49611;BME280;35515;48.766;9.176;2022-08-01T08:41:37;98429.22;;;23.82;54.63
49611;BME280;35515;48.766;9.176;2022-08-01T08:44:05;98420.28;;;23.91;54.69
49611;BME280;35515;48.766;9.176;2022-08-01T08:46:32;98426.13;;;23.89;54.64
49611;BME280;35515;48.766;9.176;2022-08-01T08:49:02;98430.06;;;24.07;54.44
49611;BME280;35515;48.766;9.176;2022-08-01T08:51:33;98431.41;;;24.10;54.36
49611;BME280;35515;48.766;9.176;2022-08-01T08:54:00;98428.50;;;24.20;54.11
49611;BME280;35515;48.766;9.176;2022-08-01T08:56:28;98435.69;;;24.21;54.58
49611;BME280;35515;48.766;9.176;2022-08-01T08:58:55;98435.09;;;24.24;54.19
49611;BME280;35515;48.766;9.176;2022-08-01T09:01:22;98433.44;;;24.23;54.32
49611;BME280;35515;48.766;9.176;2022-08-01T09:03:48;98428.06;;;24.13;54.68
49611;BME280;35515;48.766;9.176;2022-08-01T09:06:15;98429.72;;;24.14;54.62
49611;BME280;35515;48.766;9.176;2022-08-01T09:08:43;98438.09;;;24.09;54.82
49611;BME280;35515;48.766;9.176;2022-08-01T09:11:10;98439.22;;;24.27;54.32
49611;BME280;35515;48.766;9.176;2022-08-01T09:13:36;98445.34;;;24.24;54.20
49611;BME280;35515;48.766;9.176;2022-08-01T09:16:04;98431.47;;;24.29;53.92
49611;BME280;35515;48.766;9.176;2022-08-01T09:18:32;98445.97;;;24.20;54.11
49611;BME280;35515;48.766;9.176;2022-08-01T09:21:11;98435.69;;;24.21;54.00
49611;BME280;35515;48.766;9.176;2022-08-01T09:23:41;98434.28;;;24.24;53.81
49611;BME280;35515;48.766;9.176;2022-08-01T09:26:10;98445.34;;;24.24;54.07
49611;BME280;35515;48.766;9.176;2022-08-01T09:28:38;98439.47;;;24.30;53.70
49611;BME280;35515;48.766;9.176;2022-08-01T09:31:07;98444.56;;;24.61;52.92
49611;BME280;35515;48.766;9.176;2022-08-01T09:33:50;98444.19;;;24.49;52.98
49611;BME280;35515;48.766;9.176;2022-08-01T09:36:18;98445.91;;;24.45;52.95
49611;BME280;35515;48.766;9.176;2022-08-01T09:38:45;98454.25;;;24.64;52.57
49611;BME280;35515;48.766;9.176;2022-08-01T09:41:13;98447.19;;;24.52;53.07
49611;BME280;35515;48.766;9.176;2022-08-01T09:43:41;98457.84;;;24.83;52.47
49611;BME280;35515;48.766;9.176;2022-08-01T09:46:13;98444.50;;;24.85;52.40
49611;BME280;35515;48.766;9.176;2022-08-01T09:48:55;98434.19;;;24.72;52.39
49611;BME280;35515;48.766;9.176;2022-08-01T09:51:31;98447.81;;;24.87;52.47
49611;BME280;35515;48.766;9.176;2022-08-01T09:53:59;98444.44;;;24.72;52.82
49611;BME280;35515;48.766;9.176;2022-08-01T09:56:36;98448.31;;;24.90;52.38
49611;BME280;35515;48.766;9.176;2022-08-01T09:59:02;98437.94;;;24.81;52.18
49611;BME280;35515;48.766;9.176;2022-08-01T10:01:42;98446.38;;;24.71;52.78
49611;BME280;35515;48.766;9.176;2022-08-01T10:04:10;98444.84;;;24.65;52.92
49611;BME280;35515;48.766;9.176;2022-08-01T10:06:37;98446.19;;;24.67;53.47
49611;BME280;35515;48.766;9.176;2022-08-01T10:09:04;98449.75;;;24.68;52.88
49611;BME280;35515;48.766;9.176;2022-08-01T10:11:33;98439.50;;;24.87;52.27
49611;BME280;35515;48.766;9.176;2022-08-01T10:14:02;98431.63;;;24.95;52.29
49611;BME280;35515;48.766;9.176;2022-08-01T10:16:30;98436.28;;;24.99;51.59
49611;BME280;35515;48.766;9.176;2022-08-01T10:18:58;98435.88;;;24.87;51.84
49611;BME280;35515;48.766;9.176;2022-08-01T10:21:27;98438.28;;;24.94;51.57
49611;BME280;35515;48.766;9.176;2022-08-01T10:23:54;98436.19;;;24.85;51.73
49611;BME280;35515;48.766;9.176;2022-08-01T10:26:25;98435.69;;;25.16;51.04
49611;BME280;35515;48.766;9.176;2022-08-01T10:28:53;98427.66;;;25.01;51.37
49611;BME280;35515;48.766;9.176;2022-08-01T10:31:20;98420.75;;;24.98;51.88
49611;BME280;35515;48.766;9.176;2022-08-01T10:33:47;98419.94;;;24.98;51.38
49611;BME280;35515;48.766;9.176;2022-08-01T10:36:17;98424.88;;;25.01;50.85
49611;BME280;35515;48.766;9.176;2022-08-01T10:38:45;98415.41;;;25.21;50.05
49611;BME280;35515;48.766;9.176;2022-08-01T10:41:12;98406.31;;;25.34;49.71
49611;BME280;35515;48.766;9.176;2022-08-01T10:43:40;98405.59;;;25.43;50.12
49611;BME280;35515;48.766;9.176;2022-08-01T10:46:08;98411.06;;;25.62;49.22
49611;BME280;35515;48.766;9.176;2022-08-01T10:48:41;98410.75;;;25.49;49.40
49611;BME280;35515;48.766;9.176;2022-08-01T10:51:09;98422.06;;;25.53;49.25
49611;BME280;35515;48.766;9.176;2022-08-01T10:53:35;98400.81;;;25.62;48.99
49611;BME280;35515;48.766;9.176;2022-08-01T10:56:03;98409.09;;;25.48;49.35
49611;BME280;35515;48.766;9.176;2022-08-01T10:58:33;98408.66;;;25.27;50.02
49611;BME280;35515;48.766;9.176;2022-08-01T11:01:16;98409.22;;;25.43;49.20
49611;BME280;35515;48.766;9.176;2022-08-01T11:03:45;98398.28;;;25.33;49.59
49611;BME280;35515;48.766;9.176;2022-08-01T11:06:24;98403.81;;;25.00;50.26
49611;BME280;35515;48.766;9.176;2022-08-01T11:08:52;98399.09;;;25.00;50.34
49611;BME280;35515;48.766;9.176;2022-08-01T11:11:20;98381.19;;;25.12;50.33
49611;BME280;35515;48.766;9.176;2022-08-01T11:14:04;98387.59;;;25.26;49.98
49611;BME280;35515;48.766;9.176;2022-08-01T11:16:37;98371.16;;;25.30;49.51
49611;BME280;35515;48.766;9.176;2022-08-01T11:19:05;98387.81;;;25.30;49.54
49611;BME280;35515;48.766;9.176;2022-08-01T11:21:58;98388.56;;;25.49;49.13
49611;BME280;35515;48.766;9.176;2022-08-01T11:24:54;98387.31;;;25.42;49.27
49611;BME280;35515;48.766;9.176;2022-08-01T11:27:24;98383.56;;;25.51;49.06
49611;BME280;35515;48.766;9.176;2022-08-01T11:30:22;98384.97;;;25.63;48.28
49611;BME280;35515;48.766;9.176;2022-08-01T11:32:53;98373.47;;;25.56;48.40
49611;BME280;35515;48.766;9.176;2022-08-01T11:35:21;98374.50;;;25.46;48.41
49611;BME280;35515;48.766;9.176;2022-08-01T11:37:49;98375.25;;;25.79;47.82
49611;BME280;35515;48.766;9.176;2022-08-01T11:40:18;98372.34;;;25.70;47.76
49611;BME280;35515;48.766;9.176;2022-08-01T11:42:46;98371.22;;;25.58;48.31
49611;BME280;35515;48.766;9.176;2022-08-01T11:45:13;98370.09;;;25.45;48.20
49611;BME280;35515;48.766;9.176;2022-08-01T11:47:44;98359.31;;;25.57;47.97
49611;BME280;35515;48.766;9.176;2022-08-01T11:50:31;98361.16;;;25.48;48.56
49611;BME280;35515;48.766;9.176;2022-08-01T11:52:58;98360.84;;;25.49;48.09
49611;BME280;35515;48.766;9.176;2022-08-01T11:55:26;98353.53;;;25.53;48.28
49611;BME280;35515;48.766;9.176;2022-08-01T11:57:59;98352.94;;;25.57;47.94
49611;BME280;35515;48.766;9.176;2022-08-01T12:00:25;98355.00;;;25.65;47.75
49611;BME280;35515;48.766;9.176;2022-08-01T12:02:56;98360.09;;;25.85;47.84
49611;BME280;35515;48.766;9.176;2022-08-01T12:05:24;98356.91;;;25.92;46.50
49611;BME280;35515;48.766;9.176;2022-08-01T12:07:53;98354.59;;;25.72;46.82
49611;BME280;35515;48.766;9.176;2022-08-01T12:10:21;98342.03;;;25.74;47.12
49611;BME280;35515;48.766;9.176;2022-08-01T12:12:50;98338.75;;;25.86;46.74
49611;BME280;35515;48.766;9.176;2022-08-01T12:15:17;98329.31;;;25.73;46.84
49611;BME280;35515;48.766;9.176;2022-08-01T12:17:47;98345.75;;;25.83;46.61
49611;BME280;35515;48.766;9.176;2022-08-01T12:20:16;98331.34;;;25.95;46.18
49611;BME280;35515;48.766;9.176;2022-08-01T12:22:45;98318.50;;;25.85;46.58
49611;BME280;35515;48.766;9.176;2022-08-01T12:25:15;98326.81;;;25.85;46.35
49611;BME280;35515;48.766;9.176;2022-08-01T12:27:43;98337.00;;;25.76;46.29
49611;BME280;35515;48.766;9.176;2022-08-01T12:30:12;98344.69;;;25.93;45.44
49611;BME280;35515;48.766;9.176;2022-08-01T12:32:41;98336.78;;;25.86;46.02
49611;BME280;35515;48.766;9.176;2022-08-01T12:35:10;98329.19;;;25.78;46.22
49611;BME280;35515;48.766;9.176;2022-08-01T12:37:37;98331.97;;;25.78;46.77
49611;BME280;35515;48.766;9.176;2022-08-01T12:40:10;98339.25;;;25.88;46.75
49611;BME280;35515;48.766;9.176;2022-08-01T12:42:40;98327.84;;;25.90;46.52
49611;BME280;35515;48.766;9.176;2022-08-01T12:45:08;98337.81;;;25.91;46.90
49611;BME280;35515;48.766;9.176;2022-08-01T12:47:37;98321.47;;;25.89;46.98
49611;BME280;35515;48.766;9.176;2022-08-01T12:50:06;98327.53;;;26.05;46.34
49611;BME280;35515;48.766;9.176;2022-08-01T12:52:34;98333.94;;;26.28;45.43
49611;BME280;35515;48.766;9.176;2022-08-01T12:55:10;98325.34;;;26.16;45.70
49611;BME280;35515;48.766;9.176;2022-08-01T12:57:40;98319.41;;;25.95;46.64
49611;BME280;35515;48.766;9.176;2022-08-01T13:00:14;98325.88;;;26.04;46.02
49611;BME280;35515;48.766;9.176;2022-08-01T13:02:42;98314.06;;;25.98;46.26
49611;BME280;35515;48.766;9.176;2022-08-01T13:05:09;98310.75;;;25.96;46.43
49611;BME280;35515;48.766;9.176;2022-08-01T13:07:38;98317.56;;;26.04;46.39
49611;BME280;35515;48.766;9.176;2022-08-01T13:10:06;98318.50;;;26.36;45.70